KASH

Nashua Municipal Airport

Airport
ICAO code
KASH
Summary
ICAO Region
NAM
ICAO Territory
Location

Nashua, New Hampshire,

Coordinates
42° 46' 48" N , 71° 30' 58" W
KCC
Airport WX
Cumulonimbus
Metar
KASH 251856Z 28007KT 10SM CLR 28/17 A2994 RMK AO2 SLP141 T02780167

Description

Nashua Municipal Airport, also known as Boire Field, is a public use airport located 5 km northwest of the central business district of Nashua, a city in Hillsborough County, New Hampshire.

Climatology

Humid continental climate (Köppen climate classification Dfa) - characterized by four seasons: cold, windy, snowy winters, mild springs, hot, humid summers, and crisp and relatively short autumns. Precipitation reaches its lowest in January and February and peaks in summer and latter half of spring.

Airport map

Aerial View

SKYbrary Partners:

Safety knowledge contributed by: